createdAt,value
2019-05-03T00:02:22.343Z,46.37
2019-05-03T00:04:56.062Z,46.02
2019-05-03T00:07:28.741Z,48.23
2019-05-03T00:10:02.829Z,45.73
2019-05-03T00:12:37.687Z,44.00
2019-05-03T00:15:15.081Z,47.55
2019-05-03T00:17:48.045Z,48.90
2019-05-03T00:20:21.927Z,49.98
2019-05-03T00:22:54.720Z,50.45
2019-05-03T00:25:27.322Z,49.77
2019-05-03T00:28:01.720Z,54.30
2019-05-03T00:30:34.240Z,54.93
2019-05-03T00:33:06.856Z,53.15
2019-05-03T00:35:42.370Z,51.85
2019-05-03T00:38:16.347Z,52.83
2019-05-03T00:40:49.260Z,52.35
2019-05-03T00:43:22.269Z,57.33
2019-05-03T00:45:54.900Z,58.08
2019-05-03T00:48:27.725Z,57.78
2019-05-03T00:51:02.265Z,54.73
2019-05-03T00:53:35.437Z,56.28
2019-05-03T00:56:08.016Z,54.45
2019-05-03T00:58:52.794Z,55.43
2019-05-03T01:01:24.815Z,53.60
2019-05-03T01:03:57.731Z,57.35
2019-05-03T01:06:31.814Z,56.40
2019-05-03T01:09:05.587Z,56.20
2019-05-03T01:11:39.318Z,57.25
2019-05-03T01:14:13.719Z,58.60
2019-05-03T01:16:54.106Z,56.77
2019-05-03T01:19:32.063Z,57.25
2019-05-03T01:22:04.560Z,55.73
2019-05-03T01:24:37.506Z,57.30
2019-05-03T01:27:12.448Z,54.70
2019-05-03T01:29:45.439Z,54.75
2019-05-03T01:32:17.757Z,51.73
2019-05-03T01:34:52.078Z,57.13
2019-05-03T01:37:25.373Z,55.85
2019-05-03T01:39:57.856Z,54.35
2019-05-03T01:42:31.938Z,59.00
2019-05-03T01:45:04.064Z,55.25
2019-05-03T01:47:46.816Z,51.58
2019-05-03T01:50:33.576Z,52.53
2019-05-03T01:53:07.261Z,54.67
2019-05-03T01:55:53.397Z,51.63
2019-05-03T01:58:28.786Z,53.52
2019-05-03T02:01:18.985Z,53.45
2019-05-03T02:04:09.411Z,53.45
2019-05-03T02:06:43.234Z,53.90
2019-05-03T02:09:16.600Z,52.85
2019-05-03T02:11:49.282Z,51.98
2019-05-03T02:14:22.221Z,52.10
2019-05-03T02:16:54.660Z,56.75
2019-05-03T02:19:30.271Z,53.85
2019-05-03T02:22:04.447Z,56.68
2019-05-03T02:24:37.478Z,57.75
2019-05-03T02:27:13.185Z,53.50
2019-05-03T02:29:45.794Z,51.23
2019-05-03T02:32:25.439Z,54.23
2019-05-03T02:34:58.759Z,53.45
2019-05-03T02:40:04.392Z,53.95
2019-05-03T02:42:38.664Z,57.10
2019-05-03T02:45:15.448Z,57.13
2019-05-03T02:47:55.854Z,56.13
2019-05-03T02:50:28.628Z,54.18
2019-05-03T02:53:01.191Z,52.78
2019-05-03T02:55:36.414Z,52.25
2019-05-03T02:58:09.115Z,51.53
2019-05-03T03:00:56.603Z,52.33
2019-05-03T03:03:32.964Z,50.95
2019-05-03T03:06:07.075Z,52.88
2019-05-03T03:08:40.985Z,51.88
2019-05-03T03:11:15.538Z,52.95
2019-05-03T03:13:50.177Z,51.48
2019-05-03T03:16:25.120Z,54.58
2019-05-03T03:18:59.918Z,59.38
2019-05-03T03:21:36.113Z,58.92
2019-05-03T03:24:11.911Z,56.70
2019-05-03T03:26:47.244Z,54.73
2019-05-03T03:29:25.240Z,53.28
2019-05-03T03:32:18.307Z,50.95
2019-05-03T03:35:12.378Z,51.53
2019-05-03T03:37:46.223Z,41.08
2019-05-03T03:40:19.505Z,46.02
2019-05-03T03:42:55.686Z,50.25
2019-05-03T03:45:28.315Z,51.45
2019-05-03T03:48:05.186Z,53.48
2019-05-03T03:50:38.581Z,54.77
2019-05-03T03:53:15.245Z,58.10
2019-05-03T03:55:49.146Z,53.90
2019-05-03T03:58:23.193Z,52.35
2019-05-03T04:00:57.248Z,49.23
2019-05-03T04:03:30.608Z,50.88
2019-05-03T04:06:05.701Z,53.23
2019-05-03T04:08:37.573Z,55.33
2019-05-03T04:11:15.810Z,55.95
2019-05-03T04:13:48.788Z,55.33
2019-05-03T04:16:26.034Z,55.30
2019-05-03T04:19:05.703Z,56.73
2019-05-03T04:21:36.259Z,55.28
2019-05-03T04:24:09.473Z,55.45
2019-05-03T04:26:42.312Z,53.25
2019-05-03T04:29:16.055Z,53.73
2019-05-03T04:31:49.334Z,55.60
2019-05-03T04:36:55.397Z,53.15
2019-05-03T04:39:28.062Z,57.83
2019-05-03T04:42:00.737Z,57.88
2019-05-03T04:44:35.483Z,57.65
2019-05-03T04:47:07.164Z,53.78
2019-05-03T04:49:40.510Z,53.38
2019-05-03T04:52:16.207Z,51.60
2019-05-03T04:54:51.711Z,57.73
2019-05-03T04:57:39.648Z,54.27
2019-05-03T05:00:05.403Z,55.73
2019-05-03T05:02:38.104Z,51.35
2019-05-03T05:05:11.133Z,54.40
2019-05-03T05:07:45.613Z,53.95
2019-05-03T05:10:18.043Z,56.20
2019-05-03T05:12:51.155Z,77.30
2019-05-03T05:15:26.048Z,60.48
2019-05-03T05:18:16.206Z,58.78
2019-05-03T05:20:50.550Z,60.10
2019-05-03T05:23:24.955Z,62.03
2019-05-03T05:25:58.902Z,61.85
2019-05-03T05:28:49.599Z,59.80
2019-05-03T05:31:25.731Z,60.55
2019-05-03T05:33:58.097Z,62.60
2019-05-03T05:36:31.052Z,64.03
2019-05-03T05:39:05.142Z,60.92
2019-05-03T05:41:38.268Z,60.45
2019-05-03T05:44:11.524Z,59.25
2019-05-03T05:46:46.559Z,58.75
2019-05-03T05:49:20.278Z,63.40
2019-05-03T05:51:54.529Z,62.90
2019-05-03T05:54:26.826Z,62.05
2019-05-03T05:57:06.012Z,62.15
2019-05-03T05:59:45.370Z,57.70
2019-05-03T06:02:18.472Z,61.90
2019-05-03T06:04:51.267Z,59.63
2019-05-03T06:10:07.092Z,61.05
2019-05-03T06:13:02.109Z,61.50
2019-05-03T06:15:45.244Z,65.60
2019-05-03T06:18:25.112Z,66.85
2019-05-03T06:21:04.504Z,62.05
2019-05-03T06:23:53.104Z,62.33
2019-05-03T06:26:39.632Z,67.62
2019-05-03T06:29:12.096Z,67.47
2019-05-03T06:31:58.019Z,66.42
2019-05-03T06:34:30.855Z,67.37
2019-05-03T06:37:07.794Z,65.42
2019-05-03T06:39:41.006Z,66.22
2019-05-03T06:42:17.523Z,66.90
2019-05-03T06:44:49.362Z,67.75
2019-05-03T06:47:21.934Z,67.03
2019-05-03T06:49:55.286Z,67.90
2019-05-03T06:52:29.470Z,68.50
2019-05-03T06:55:06.391Z,62.25
2019-05-03T06:57:40.088Z,65.85
2019-05-03T07:00:29.466Z,65.37
2019-05-03T07:03:04.921Z,71.10
2019-05-03T07:05:51.238Z,71.12
2019-05-03T07:08:41.666Z,68.33
2019-05-03T07:11:15.450Z,69.65
2019-05-03T07:13:48.440Z,69.05
2019-05-03T07:16:21.540Z,68.20
2019-05-03T07:21:26.953Z,64.27
2019-05-03T07:23:59.373Z,57.15
2019-05-03T07:26:32.061Z,59.23
2019-05-03T07:31:37.525Z,59.27
2019-05-03T07:34:11.597Z,66.07
2019-05-03T07:36:44.648Z,58.80
2019-05-03T07:39:17.299Z,65.83
2019-05-03T07:41:49.718Z,65.92
2019-05-03T07:44:25.477Z,63.55
2019-05-03T07:46:58.420Z,65.47
2019-05-03T07:49:30.997Z,66.02
2019-05-03T07:52:05.635Z,65.67
2019-05-03T07:54:38.210Z,50.40
2019-05-03T07:57:28.755Z,57.75
2019-05-03T08:00:01.325Z,60.08
2019-05-03T08:02:35.915Z,55.88
2019-05-03T08:05:09.422Z,57.83
2019-05-03T08:07:43.915Z,57.10
2019-05-03T08:10:16.600Z,59.42
2019-05-03T08:15:20.508Z,57.15
2019-05-03T08:17:55.433Z,55.12
2019-05-03T08:20:27.582Z,56.48
2019-05-03T08:23:00.216Z,56.73
2019-05-03T08:25:32.688Z,59.10
2019-05-03T08:28:05.743Z,59.10
2019-05-03T08:30:40.551Z,57.33
2019-05-03T08:33:20.595Z,55.75
2019-05-03T08:35:55.490Z,54.85
2019-05-03T08:38:28.015Z,55.30
2019-05-03T08:41:02.067Z,53.63
2019-05-03T08:43:36.093Z,54.95
2019-05-03T08:46:10.262Z,55.65
2019-05-03T08:48:48.980Z,56.70
2019-05-03T08:51:19.887Z,54.88
2019-05-03T08:53:52.711Z,54.58
2019-05-03T08:56:25.194Z,52.38
2019-05-03T08:58:57.660Z,53.17
2019-05-03T09:01:30.664Z,57.38
2019-05-03T09:04:04.943Z,57.98
2019-05-03T09:06:37.784Z,58.95
2019-05-03T09:09:11.782Z,57.05
2019-05-03T09:11:45.388Z,57.40
2019-05-03T09:14:18.844Z,57.62
2019-05-03T09:16:52.233Z,53.92
2019-05-03T09:19:25.414Z,55.20
2019-05-03T09:21:58.095Z,51.58
2019-05-03T09:24:30.570Z,53.83
2019-05-03T09:27:06.150Z,53.30
2019-05-03T09:29:43.281Z,51.10
2019-05-03T09:32:14.611Z,53.00
2019-05-03T09:34:47.088Z,51.92
2019-05-03T09:37:20.295Z,54.90
2019-05-03T09:39:55.240Z,53.78
2019-05-03T09:42:28.566Z,55.63
2019-05-03T09:45:01.048Z,55.10
2019-05-03T09:47:35.341Z,56.25
2019-05-03T09:50:11.093Z,55.88
2019-05-03T09:52:47.064Z,53.60
2019-05-03T09:55:25.334Z,51.92
2019-05-03T09:57:57.977Z,52.53
2019-05-03T10:00:30.524Z,52.80
2019-05-03T10:03:05.381Z,52.05
2019-05-03T10:05:37.416Z,53.78
2019-05-03T10:08:10.738Z,55.50
2019-05-03T10:11:01.337Z,53.35
2019-05-03T10:13:35.511Z,56.25
2019-05-03T10:16:08.827Z,55.95
2019-05-03T10:18:41.664Z,53.48
2019-05-03T10:21:14.842Z,54.10
2019-05-03T10:23:47.432Z,57.93
2019-05-03T10:26:20.229Z,56.05
2019-05-03T10:28:52.636Z,58.10
2019-05-03T10:31:27.267Z,60.80
2019-05-03T10:34:00.964Z,59.13
2019-05-03T10:36:35.515Z,54.23
2019-05-03T10:39:08.142Z,52.93
2019-05-03T10:41:42.527Z,53.63
2019-05-03T10:46:49.006Z,53.80
2019-05-03T10:49:24.591Z,53.90
2019-05-03T10:51:58.832Z,52.10
2019-05-03T10:54:31.329Z,51.37
2019-05-03T10:57:08.391Z,49.00
2019-05-03T10:59:40.633Z,50.00
2019-05-03T11:02:18.259Z,49.93
2019-05-03T11:04:50.985Z,46.23
2019-05-03T11:07:25.558Z,50.80
2019-05-03T11:09:59.256Z,51.63
2019-05-03T11:12:34.802Z,55.08
2019-05-03T11:15:09.647Z,52.62
2019-05-03T11:17:42.087Z,50.08
2019-05-03T11:20:28.053Z,54.05
2019-05-03T11:22:49.268Z,51.65
2019-05-03T11:25:21.735Z,53.00
2019-05-03T11:27:55.891Z,52.30
2019-05-03T11:30:32.762Z,51.20
2019-05-03T11:33:08.244Z,50.95
2019-05-03T11:35:51.640Z,52.27
2019-05-03T11:38:27.118Z,51.65
2019-05-03T11:41:02.295Z,54.88
2019-05-03T11:43:34.977Z,53.45
2019-05-03T11:46:07.774Z,57.55
2019-05-03T11:48:39.987Z,53.45
2019-05-03T11:51:15.075Z,54.45
2019-05-03T11:53:46.588Z,58.70
2019-05-03T11:56:19.387Z,56.48
2019-05-03T11:58:51.848Z,51.53
2019-05-03T12:01:25.899Z,50.50
2019-05-03T12:03:59.015Z,51.55
2019-05-03T12:09:05.479Z,52.53
2019-05-03T12:11:41.292Z,53.28
2019-05-03T12:14:15.411Z,52.65
2019-05-03T12:17:16.755Z,54.18
2019-05-03T12:19:37.680Z,51.30
2019-05-03T12:22:10.996Z,47.40
2019-05-03T12:24:45.737Z,50.80
2019-05-03T12:27:17.395Z,48.58
2019-05-03T12:29:52.474Z,51.18
2019-05-03T12:32:25.151Z,52.78
2019-05-03T12:35:00.758Z,51.73
2019-05-03T12:37:32.121Z,53.68
2019-05-03T12:42:41.681Z,54.18
2019-05-03T12:45:15.758Z,51.10
2019-05-03T12:47:48.236Z,50.45
2019-05-03T12:50:21.121Z,54.00
2019-05-03T12:52:55.415Z,52.05
2019-05-03T12:55:27.411Z,49.50
2019-05-03T12:58:00.076Z,53.42
2019-05-03T13:00:51.560Z,52.95
2019-05-03T13:03:31.852Z,54.90
2019-05-03T13:06:06.940Z,49.67
2019-05-03T13:08:40.538Z,52.03
2019-05-03T13:11:13.336Z,52.23
2019-05-03T13:16:20.275Z,51.40
2019-05-03T13:18:55.144Z,54.27
2019-05-03T13:21:26.525Z,55.17
2019-05-03T13:23:59.021Z,52.25
2019-05-03T13:26:31.646Z,54.38
2019-05-03T13:29:05.850Z,56.73
2019-05-03T13:31:38.371Z,57.05
2019-05-03T13:34:11.024Z,54.40
2019-05-03T13:36:45.534Z,54.83
2019-05-03T13:39:17.751Z,55.20
2019-05-03T13:41:50.354Z,53.05
2019-05-03T13:44:24.692Z,55.00
2019-05-03T13:46:57.021Z,57.62
2019-05-03T13:49:29.571Z,56.53
2019-05-03T13:52:02.453Z,57.13
2019-05-03T13:54:35.144Z,54.45
2019-05-03T13:57:07.692Z,56.20
2019-05-03T13:59:40.780Z,59.08
2019-05-03T14:02:18.843Z,55.40
2019-05-03T14:04:52.415Z,55.10
2019-05-03T14:07:21.347Z,61.35
2019-05-03T14:09:55.668Z,61.80
2019-05-03T14:12:28.602Z,57.95
2019-05-03T14:15:01.076Z,55.48
2019-05-03T14:17:33.510Z,60.98
2019-05-03T14:20:09.964Z,62.73
2019-05-03T14:22:47.088Z,64.92
2019-05-03T14:25:19.316Z,66.80
2019-05-03T14:27:52.557Z,58.58
2019-05-03T14:30:25.388Z,65.57
2019-05-03T14:35:29.929Z,64.50
2019-05-03T14:40:33.880Z,63.58
2019-05-03T14:43:08.031Z,66.60
2019-05-03T14:45:40.568Z,69.07
2019-05-03T14:48:15.088Z,70.05
2019-05-03T14:50:47.455Z,66.17
2019-05-03T14:53:38.899Z,65.35
2019-05-03T14:59:21.581Z,63.60
2019-05-03T15:02:19.797Z,64.00
2019-05-03T15:04:54.760Z,67.87
2019-05-03T15:07:39.358Z,66.15
2019-05-03T15:10:15.312Z,66.90
2019-05-03T15:12:49.514Z,66.28
2019-05-03T15:15:22.379Z,68.80
2019-05-03T15:17:56.148Z,67.65
2019-05-03T15:20:41.243Z,70.80
2019-05-03T15:23:14.673Z,72.70
2019-05-03T15:25:47.464Z,71.65
2019-05-03T15:28:19.890Z,70.42
2019-05-03T15:30:52.687Z,68.70
2019-05-03T15:33:26.681Z,66.35
2019-05-03T15:38:34.657Z,64.65
2019-05-03T15:41:07.495Z,68.70
2019-05-03T15:43:54.805Z,63.60
2019-05-03T15:46:34.994Z,66.37
2019-05-03T15:49:07.928Z,67.12
2019-05-03T15:51:44.462Z,66.25
2019-05-03T15:54:16.514Z,66.72
2019-05-03T15:56:50.438Z,65.65
2019-05-03T15:59:25.595Z,67.27
2019-05-03T16:01:59.680Z,68.07
2019-05-03T16:04:35.679Z,69.67
2019-05-03T16:07:21.323Z,67.97
2019-05-03T16:10:10.439Z,70.40
2019-05-03T16:12:45.699Z,67.95
2019-05-03T16:15:20.040Z,71.20
2019-05-03T16:20:25.102Z,66.53
2019-05-03T16:23:04.940Z,67.27
2019-05-03T16:25:40.386Z,66.17
2019-05-03T16:28:26.101Z,73.25
2019-05-03T16:31:05.125Z,70.45
2019-05-03T16:33:38.093Z,71.77
2019-05-03T16:36:10.737Z,66.65
2019-05-03T16:38:44.953Z,66.55
2019-05-03T16:41:20.452Z,67.32
2019-05-03T16:43:53.310Z,64.97
2019-05-03T16:46:26.158Z,68.85
2019-05-03T16:49:00.228Z,68.20
2019-05-03T16:51:34.783Z,62.93
2019-05-03T16:54:08.176Z,66.10
2019-05-03T16:56:40.667Z,65.08
2019-05-03T16:59:14.802Z,66.80
2019-05-03T17:01:47.372Z,66.42
2019-05-03T17:04:26.202Z,59.27
2019-05-03T17:07:07.111Z,68.95
2019-05-03T17:09:40.956Z,69.30
2019-05-03T17:12:17.913Z,68.55
2019-05-03T17:14:50.326Z,66.10
2019-05-03T17:17:25.106Z,65.35
2019-05-03T17:19:57.892Z,69.92
2019-05-03T17:22:30.562Z,74.20
2019-05-03T17:25:04.377Z,69.92
2019-05-03T17:27:36.946Z,67.15
2019-05-03T17:30:09.461Z,65.95
2019-05-03T17:32:45.788Z,65.65
2019-05-03T17:35:25.182Z,65.47
2019-05-03T17:37:56.249Z,65.52
2019-05-03T17:40:40.285Z,59.50
2019-05-03T17:43:14.714Z,57.50
2019-05-03T17:45:52.414Z,57.88
2019-05-03T17:48:24.961Z,54.60
2019-05-03T17:50:58.254Z,54.45
2019-05-03T17:53:45.050Z,49.27
2019-05-03T17:56:17.734Z,42.10
2019-05-03T17:58:59.539Z,42.15
2019-05-03T18:01:38.887Z,45.43
2019-05-03T18:04:18.664Z,39.13
2019-05-03T18:07:00.577Z,39.70
2019-05-03T18:09:37.100Z,42.53
2019-05-03T18:12:09.696Z,43.63
2019-05-03T18:14:42.638Z,39.75
2019-05-03T18:17:17.116Z,43.58
2019-05-03T18:19:50.142Z,42.75
2019-05-03T18:22:24.338Z,39.55
2019-05-03T18:24:57.199Z,44.80
2019-05-03T18:27:29.700Z,42.70
2019-05-03T18:30:04.750Z,37.88
2019-05-03T18:32:40.157Z,30.12
2019-05-03T18:35:12.586Z,30.50
2019-05-03T18:37:46.801Z,36.45
2019-05-03T18:40:22.469Z,35.00
2019-05-03T18:42:58.873Z,32.53
2019-05-03T18:45:39.565Z,29.30
2019-05-03T18:48:12.043Z,34.13
2019-05-03T18:50:45.611Z,30.08
2019-05-03T18:53:18.341Z,29.98
2019-05-03T18:55:50.735Z,29.82
2019-05-03T18:58:24.417Z,33.23
2019-05-03T19:00:56.984Z,36.15
2019-05-03T19:03:29.841Z,29.40
2019-05-03T19:06:06.791Z,28.12
2019-05-03T19:08:44.699Z,23.77
2019-05-03T19:11:21.755Z,29.72
2019-05-03T19:13:56.154Z,26.15
2019-05-03T19:16:45.570Z,28.62
2019-05-03T19:19:19.838Z,31.70
2019-05-03T19:21:52.264Z,33.13
2019-05-03T19:24:24.990Z,35.65
2019-05-03T19:29:28.892Z,35.40
2019-05-03T19:32:01.847Z,32.63
2019-05-03T19:34:46.921Z,35.52
2019-05-03T19:37:08.667Z,36.42
2019-05-03T19:39:42.174Z,33.67
2019-05-03T19:42:14.572Z,35.63
2019-05-03T19:45:00.466Z,29.12
2019-05-03T19:47:35.332Z,31.97
2019-05-03T19:50:09.043Z,29.85
2019-05-03T19:52:58.504Z,32.28
2019-05-03T19:55:30.925Z,28.85
2019-05-03T19:58:05.262Z,26.77
2019-05-03T20:00:38.411Z,27.73
2019-05-03T20:03:12.205Z,21.82
2019-05-03T20:05:52.133Z,27.95
2019-05-03T20:08:26.201Z,24.95
2019-05-03T20:11:15.395Z,23.57
2019-05-03T20:13:48.274Z,22.67
2019-05-03T20:18:52.400Z,20.85
2019-05-03T20:21:25.281Z,21.35
2019-05-03T20:23:58.190Z,21.15
2019-05-03T20:26:30.413Z,18.62
2019-05-03T20:29:03.136Z,20.85
2019-05-03T20:31:35.865Z,19.75
2019-05-03T20:34:09.205Z,20.82
2019-05-03T20:36:42.032Z,22.25
2019-05-03T20:39:14.819Z,20.55
2019-05-03T20:44:26.210Z,17.95
2019-05-03T20:47:06.282Z,22.50
2019-05-03T20:49:38.828Z,18.87
2019-05-03T20:52:11.237Z,10.40
2019-05-03T20:54:44.800Z,13.35
2019-05-03T20:57:17.476Z,20.08
2019-05-03T20:59:52.046Z,18.52
2019-05-03T21:02:24.549Z,19.90
2019-05-03T21:04:57.523Z,21.42
2019-05-03T21:07:30.366Z,17.17
2019-05-03T21:10:03.119Z,22.40
2019-05-03T21:12:36.132Z,21.12
2019-05-03T21:15:15.476Z,18.62
2019-05-03T21:17:53.094Z,22.05
2019-05-03T21:20:27.530Z,22.25
2019-05-03T21:23:00.086Z,23.62
2019-05-03T21:26:02.722Z,17.90
2019-05-03T21:28:11.182Z,18.48
2019-05-03T21:30:45.350Z,20.27
2019-05-03T21:33:18.133Z,19.35
2019-05-03T21:35:50.904Z,19.37
2019-05-03T21:40:56.217Z,21.62
2019-05-03T21:43:29.110Z,21.15
2019-05-03T21:46:18.265Z,21.42
2019-05-03T21:48:57.905Z,21.02
2019-05-03T21:51:30.698Z,21.95
2019-05-03T21:54:06.651Z,21.20
2019-05-03T21:56:37.223Z,20.97
2019-05-03T21:59:10.176Z,21.17
2019-05-03T22:01:45.641Z,22.42
2019-05-03T22:04:19.308Z,22.62
2019-05-03T22:06:52.004Z,20.35
2019-05-03T22:09:25.894Z,18.15
2019-05-03T22:11:58.820Z,20.27
2019-05-03T22:14:35.938Z,18.37
2019-05-03T22:17:27.085Z,23.40
2019-05-03T22:20:04.906Z,21.15
2019-05-03T22:22:38.749Z,19.00
2019-05-03T22:25:12.555Z,19.27
2019-05-03T22:27:45.597Z,18.45
2019-05-03T22:32:49.928Z,18.42
2019-05-03T22:35:22.479Z,18.52
2019-05-03T22:37:55.215Z,19.45
2019-05-03T22:40:27.958Z,16.12
2019-05-03T22:43:00.386Z,17.40
2019-05-03T22:45:34.920Z,20.00
2019-05-03T22:48:06.625Z,21.35
2019-05-03T22:50:39.183Z,19.15
2019-05-03T22:53:12.001Z,19.98
2019-05-03T22:55:45.093Z,21.00
2019-05-03T22:58:17.889Z,21.12
2019-05-03T23:00:50.619Z,22.52
2019-05-03T23:03:24.871Z,19.55
2019-05-03T23:05:57.225Z,17.82
2019-05-03T23:08:29.955Z,18.65
2019-05-03T23:11:05.229Z,22.02
2019-05-03T23:13:38.102Z,19.92
2019-05-03T23:18:44.258Z,21.17
2019-05-03T23:21:17.351Z,23.35
2019-05-03T23:23:51.049Z,21.45
2019-05-03T23:26:25.272Z,25.15
2019-05-03T23:28:57.489Z,21.48
2019-05-03T23:31:30.020Z,19.23
2019-05-03T23:34:04.834Z,20.08
2019-05-03T23:36:37.342Z,19.48
2019-05-03T23:41:42.868Z,18.37
2019-05-03T23:44:15.648Z,18.30
2019-05-03T23:47:00.347Z,21.33
2019-05-03T23:49:35.241Z,25.20
2019-05-03T23:52:27.910Z,15.70
2019-05-03T23:55:05.713Z,22.95
2019-05-03T23:57:38.424Z,12.82
